sensor_id;sensor_type;location;lat;lon;timestamp;P1;durP1;ratioP1;P2;durP2;ratioP2
51525;SDS011;37611;51.794;21.590;2023-07-08T00:04:02;9.30;;;5.50;;
51525;SDS011;37611;51.794;21.590;2023-07-08T00:08:19;9.70;;;6.20;;
51525;SDS011;37611;51.794;21.590;2023-07-08T00:17:23;7.60;;;6.20;;
51525;SDS011;37611;51.794;21.590;2023-07-08T00:22:23;8.20;;;6.10;;
51525;SDS011;37611;51.794;21.590;2023-07-08T00:26:48;7.30;;;5.80;;
51525;SDS011;37611;51.794;21.590;2023-07-08T00:55:35;9.60;;;6.10;;
51525;SDS011;37611;51.794;21.590;2023-07-08T01:00:15;11.40;;;7.60;;
51525;SDS011;37611;51.794;21.590;2023-07-08T01:40:05;11.00;;;7.20;;
51525;SDS011;37611;51.794;21.590;2023-07-08T02:04:28;12.60;;;6.70;;
51525;SDS011;37611;51.794;21.590;2023-07-08T04:14:07;10.40;;;7.60;;
51525;SDS011;37611;51.794;21.590;2023-07-08T04:37:54;10.90;;;7.60;;
51525;SDS011;37611;51.794;21.590;2023-07-08T04:51:40;6.60;;;5.60;;
51525;SDS011;37611;51.794;21.590;2023-07-08T04:55:48;9.20;;;6.40;;
51525;SDS011;37611;51.794;21.590;2023-07-08T05:00:10;7.50;;;5.90;;
51525;SDS011;37611;51.794;21.590;2023-07-08T05:04:39;8.40;;;6.40;;
51525;SDS011;37611;51.794;21.590;2023-07-08T05:08:41;8.40;;;7.50;;
51525;SDS011;37611;51.794;21.590;2023-07-08T05:12:59;9.90;;;7.40;;
51525;SDS011;37611;51.794;21.590;2023-07-08T05:17:10;7.40;;;6.10;;
51525;SDS011;37611;51.794;21.590;2023-07-08T05:21:25;9.60;;;7.10;;
51525;SDS011;37611;51.794;21.590;2023-07-08T05:25:30;7.20;;;5.90;;
51525;SDS011;37611;51.794;21.590;2023-07-08T05:29:43;8.40;;;6.70;;
51525;SDS011;37611;51.794;21.590;2023-07-08T05:38:32;8.30;;;5.80;;
51525;SDS011;37611;51.794;21.590;2023-07-08T05:47:21;6.90;;;5.80;;
51525;SDS011;37611;51.794;21.590;2023-07-08T05:51:26;7.30;;;5.60;;
51525;SDS011;37611;51.794;21.590;2023-07-08T05:55:37;8.20;;;5.40;;
51525;SDS011;37611;51.794;21.590;2023-07-08T05:59:44;6.50;;;5.30;;
51525;SDS011;37611;51.794;21.590;2023-07-08T06:03:55;8.20;;;6.00;;
51525;SDS011;37611;51.794;21.590;2023-07-08T06:08:03;8.20;;;5.20;;
51525;SDS011;37611;51.794;21.590;2023-07-08T06:12:38;8.30;;;5.80;;
51525;SDS011;37611;51.794;21.590;2023-07-08T06:16:44;9.60;;;5.90;;
51525;SDS011;37611;51.794;21.590;2023-07-08T06:20:59;7.90;;;5.60;;
51525;SDS011;37611;51.794;21.590;2023-07-08T06:25:30;9.20;;;6.20;;
51525;SDS011;37611;51.794;21.590;2023-07-08T06:29:31;8.10;;;5.50;;
51525;SDS011;37611;51.794;21.590;2023-07-08T06:33:33;7.50;;;5.50;;
51525;SDS011;37611;51.794;21.590;2023-07-08T06:37:35;7.90;;;5.60;;
51525;SDS011;37611;51.794;21.590;2023-07-08T06:41:37;7.40;;;5.60;;
51525;SDS011;37611;51.794;21.590;2023-07-08T06:45:39;9.60;;;5.40;;
51525;SDS011;37611;51.794;21.590;2023-07-08T06:49:42;5.90;;;5.30;;
51525;SDS011;37611;51.794;21.590;2023-07-08T06:53:44;8.40;;;5.20;;
51525;SDS011;37611;51.794;21.590;2023-07-08T06:57:46;7.00;;;5.10;;
51525;SDS011;37611;51.794;21.590;2023-07-08T07:01:47;6.30;;;5.30;;
51525;SDS011;37611;51.794;21.590;2023-07-08T07:05:52;7.10;;;5.80;;
51525;SDS011;37611;51.794;21.590;2023-07-08T07:09:54;7.20;;;5.70;;
51525;SDS011;37611;51.794;21.590;2023-07-08T07:13:56;8.30;;;4.90;;
51525;SDS011;37611;51.794;21.590;2023-07-08T07:17:58;6.40;;;5.00;;
51525;SDS011;37611;51.794;21.590;2023-07-08T07:22:00;7.90;;;4.70;;
51525;SDS011;37611;51.794;21.590;2023-07-08T07:26:02;7.80;;;4.30;;
51525;SDS011;37611;51.794;21.590;2023-07-08T07:30:05;7.90;;;4.00;;
51525;SDS011;37611;51.794;21.590;2023-07-08T07:34:07;8.70;;;7.80;;
51525;SDS011;37611;51.794;21.590;2023-07-08T07:38:10;4.10;;;3.10;;
51525;SDS011;37611;51.794;21.590;2023-07-08T07:42:12;6.80;;;3.10;;
51525;SDS011;37611;51.794;21.590;2023-07-08T07:46:16;5.20;;;2.80;;
51525;SDS011;37611;51.794;21.590;2023-07-08T07:50:17;4.70;;;2.80;;
51525;SDS011;37611;51.794;21.590;2023-07-08T07:54:19;2.70;;;2.10;;
51525;SDS011;37611;51.794;21.590;2023-07-08T07:58:21;3.60;;;2.80;;
51525;SDS011;37611;51.794;21.590;2023-07-08T08:02:23;4.10;;;2.50;;
51525;SDS011;37611;51.794;21.590;2023-07-08T08:06:25;11.00;;;2.70;;
51525;SDS011;37611;51.794;21.590;2023-07-08T08:10:27;2.80;;;2.20;;
51525;SDS011;37611;51.794;21.590;2023-07-08T08:14:28;4.60;;;2.10;;
51525;SDS011;37611;51.794;21.590;2023-07-08T08:18:30;2.50;;;1.90;;
51525;SDS011;37611;51.794;21.590;2023-07-08T08:22:32;2.60;;;1.90;;
51525;SDS011;37611;51.794;21.590;2023-07-08T08:31:41;3.90;;;2.10;;
51525;SDS011;37611;51.794;21.590;2023-07-08T08:35:43;1.90;;;1.60;;
51525;SDS011;37611;51.794;21.590;2023-07-08T08:39:45;3.90;;;1.80;;
51525;SDS011;37611;51.794;21.590;2023-07-08T08:43:47;4.70;;;1.90;;
51525;SDS011;37611;51.794;21.590;2023-07-08T08:47:52;3.50;;;1.80;;
51525;SDS011;37611;51.794;21.590;2023-07-08T08:52:03;3.00;;;1.80;;
51525;SDS011;37611;51.794;21.590;2023-07-08T09:00:23;15.10;;;3.00;;
51525;SDS011;37611;51.794;21.590;2023-07-08T09:04:32;4.20;;;1.70;;
51525;SDS011;37611;51.794;21.590;2023-07-08T09:08:36;6.70;;;2.30;;
51525;SDS011;37611;51.794;21.590;2023-07-08T09:12:39;5.80;;;2.20;;
51525;SDS011;37611;51.794;21.590;2023-07-08T09:20:48;2.40;;;1.80;;
51525;SDS011;37611;51.794;21.590;2023-07-08T09:24:54;2.50;;;1.80;;
51525;SDS011;37611;51.794;21.590;2023-07-08T09:29:06;2.80;;;1.70;;
51525;SDS011;37611;51.794;21.590;2023-07-08T09:33:10;4.40;;;2.10;;
51525;SDS011;37611;51.794;21.590;2023-07-08T09:37:32;19.30;;;3.30;;
51525;SDS011;37611;51.794;21.590;2023-07-08T09:41:36;4.60;;;1.80;;
51525;SDS011;37611;51.794;21.590;2023-07-08T09:45:42;2.20;;;1.40;;
51525;SDS011;37611;51.794;21.590;2023-07-08T09:49:47;2.70;;;1.70;;
51525;SDS011;37611;51.794;21.590;2023-07-08T09:53:49;8.00;;;1.90;;
51525;SDS011;37611;51.794;21.590;2023-07-08T09:57:52;2.80;;;1.90;;
51525;SDS011;37611;51.794;21.590;2023-07-08T10:01:55;5.40;;;2.10;;
51525;SDS011;37611;51.794;21.590;2023-07-08T10:05:57;3.80;;;1.90;;
51525;SDS011;37611;51.794;21.590;2023-07-08T10:10:06;3.00;;;1.90;;
51525;SDS011;37611;51.794;21.590;2023-07-08T10:14:18;4.70;;;1.90;;
51525;SDS011;37611;51.794;21.590;2023-07-08T10:18:33;2.50;;;1.70;;
51525;SDS011;37611;51.794;21.590;2023-07-08T10:22:41;3.30;;;1.80;;
51525;SDS011;37611;51.794;21.590;2023-07-08T10:27:08;7.60;;;2.00;;
51525;SDS011;37611;51.794;21.590;2023-07-08T10:32:02;2.90;;;1.80;;
51525;SDS011;37611;51.794;21.590;2023-07-08T10:44:40;3.90;;;1.80;;
51525;SDS011;37611;51.794;21.590;2023-07-08T11:15:27;2.80;;;2.00;;
51525;SDS011;37611;51.794;21.590;2023-07-08T11:23:56;6.30;;;2.30;;
51525;SDS011;37611;51.794;21.590;2023-07-08T11:28:19;5.10;;;1.90;;
51525;SDS011;37611;51.794;21.590;2023-07-08T11:32:25;3.40;;;2.00;;
51525;SDS011;37611;51.794;21.590;2023-07-08T11:36:30;3.60;;;1.70;;
51525;SDS011;37611;51.794;21.590;2023-07-08T11:40:38;4.80;;;2.60;;
51525;SDS011;37611;51.794;21.590;2023-07-08T11:44:56;3.40;;;1.90;;
51525;SDS011;37611;51.794;21.590;2023-07-08T11:49:02;3.50;;;1.70;;
51525;SDS011;37611;51.794;21.590;2023-07-08T11:53:07;2.70;;;1.70;;
51525;SDS011;37611;51.794;21.590;2023-07-08T12:01:24;6.00;;;1.70;;
51525;SDS011;37611;51.794;21.590;2023-07-08T12:05:31;2.50;;;1.60;;
51525;SDS011;37611;51.794;21.590;2023-07-08T12:09:43;2.60;;;1.90;;
51525;SDS011;37611;51.794;21.590;2023-07-08T12:13:50;2.20;;;1.70;;
51525;SDS011;37611;51.794;21.590;2023-07-08T12:17:53;4.50;;;1.80;;
51525;SDS011;37611;51.794;21.590;2023-07-08T12:22:01;3.20;;;1.80;;
51525;SDS011;37611;51.794;21.590;2023-07-08T12:26:07;3.20;;;2.00;;
51525;SDS011;37611;51.794;21.590;2023-07-08T12:30:13;3.40;;;1.80;;
51525;SDS011;37611;51.794;21.590;2023-07-08T12:34:16;2.90;;;1.60;;
51525;SDS011;37611;51.794;21.590;2023-07-08T12:38:38;6.90;;;2.10;;
51525;SDS011;37611;51.794;21.590;2023-07-08T12:42:48;4.40;;;1.90;;
51525;SDS011;37611;51.794;21.590;2023-07-08T12:46:52;3.50;;;1.90;;
51525;SDS011;37611;51.794;21.590;2023-07-08T12:50:54;2.60;;;1.80;;
51525;SDS011;37611;51.794;21.590;2023-07-08T12:54:56;4.00;;;2.10;;
51525;SDS011;37611;51.794;21.590;2023-07-08T12:58:58;5.80;;;1.90;;
51525;SDS011;37611;51.794;21.590;2023-07-08T13:07:09;2.60;;;1.70;;
51525;SDS011;37611;51.794;21.590;2023-07-08T13:15:31;3.60;;;2.00;;
51525;SDS011;37611;51.794;21.590;2023-07-08T13:19:41;3.30;;;2.10;;
51525;SDS011;37611;51.794;21.590;2023-07-08T13:23:44;5.90;;;2.10;;
51525;SDS011;37611;51.794;21.590;2023-07-08T13:27:57;3.80;;;2.40;;
51525;SDS011;37611;51.794;21.590;2023-07-08T13:32:16;2.80;;;1.90;;
51525;SDS011;37611;51.794;21.590;2023-07-08T13:36:18;4.50;;;2.50;;
51525;SDS011;37611;51.794;21.590;2023-07-08T13:40:26;4.30;;;2.40;;
51525;SDS011;37611;51.794;21.590;2023-07-08T13:44:30;10.50;;;2.40;;
51525;SDS011;37611;51.794;21.590;2023-07-08T13:48:41;2.00;;;1.70;;
51525;SDS011;37611;51.794;21.590;2023-07-08T13:52:44;3.30;;;2.10;;
51525;SDS011;37611;51.794;21.590;2023-07-08T13:56:46;3.30;;;2.30;;
51525;SDS011;37611;51.794;21.590;2023-07-08T14:00:49;3.60;;;2.20;;
51525;SDS011;37611;51.794;21.590;2023-07-08T14:04:51;3.10;;;2.00;;
51525;SDS011;37611;51.794;21.590;2023-07-08T14:08:56;4.20;;;2.50;;
51525;SDS011;37611;51.794;21.590;2023-07-08T14:12:59;3.40;;;2.10;;
51525;SDS011;37611;51.794;21.590;2023-07-08T14:17:01;2.20;;;1.90;;
51525;SDS011;37611;51.794;21.590;2023-07-08T14:21:03;3.20;;;2.20;;
51525;SDS011;37611;51.794;21.590;2023-07-08T14:25:06;4.60;;;2.40;;
51525;SDS011;37611;51.794;21.590;2023-07-08T14:34:26;5.20;;;2.60;;
51525;SDS011;37611;51.794;21.590;2023-07-08T14:38:28;5.70;;;2.70;;
51525;SDS011;37611;51.794;21.590;2023-07-08T14:42:31;4.30;;;2.50;;
51525;SDS011;37611;51.794;21.590;2023-07-08T14:46:32;22.80;;;3.90;;
51525;SDS011;37611;51.794;21.590;2023-07-08T14:50:34;4.10;;;2.30;;
51525;SDS011;37611;51.794;21.590;2023-07-08T14:54:37;3.90;;;2.80;;
51525;SDS011;37611;51.794;21.590;2023-07-08T14:58:39;4.20;;;2.90;;
51525;SDS011;37611;51.794;21.590;2023-07-08T15:02:45;3.80;;;2.80;;
51525;SDS011;37611;51.794;21.590;2023-07-08T15:06:49;4.50;;;2.40;;
51525;SDS011;37611;51.794;21.590;2023-07-08T15:10:53;5.00;;;2.40;;
51525;SDS011;37611;51.794;21.590;2023-07-08T15:14:55;4.10;;;2.60;;
51525;SDS011;37611;51.794;21.590;2023-07-08T15:18:57;3.20;;;2.50;;
51525;SDS011;37611;51.794;21.590;2023-07-08T15:22:59;4.30;;;2.90;;
51525;SDS011;37611;51.794;21.590;2023-07-08T15:27:02;3.50;;;3.00;;
51525;SDS011;37611;51.794;21.590;2023-07-08T15:31:07;3.60;;;2.60;;
51525;SDS011;37611;51.794;21.590;2023-07-08T15:35:12;5.30;;;3.10;;
51525;SDS011;37611;51.794;21.590;2023-07-08T15:39:25;3.70;;;2.50;;
51525;SDS011;37611;51.794;21.590;2023-07-08T15:43:27;6.70;;;3.80;;
51525;SDS011;37611;51.794;21.590;2023-07-08T15:47:30;5.50;;;3.00;;
51525;SDS011;37611;51.794;21.590;2023-07-08T15:51:31;5.20;;;3.00;;
51525;SDS011;37611;51.794;21.590;2023-07-08T15:55:34;6.40;;;3.50;;
51525;SDS011;37611;51.794;21.590;2023-07-08T15:59:42;3.40;;;2.90;;
51525;SDS011;37611;51.794;21.590;2023-07-08T16:03:44;7.50;;;6.40;;
51525;SDS011;37611;51.794;21.590;2023-07-08T16:07:47;4.00;;;3.20;;
51525;SDS011;37611;51.794;21.590;2023-07-08T16:11:51;3.40;;;2.50;;
51525;SDS011;37611;51.794;21.590;2023-07-08T16:15:53;4.60;;;2.90;;
51525;SDS011;37611;51.794;21.590;2023-07-08T16:19:55;5.80;;;2.90;;
51525;SDS011;37611;51.794;21.590;2023-07-08T16:23:57;3.30;;;2.60;;
51525;SDS011;37611;51.794;21.590;2023-07-08T16:27:59;3.10;;;2.40;;
51525;SDS011;37611;51.794;21.590;2023-07-08T16:32:01;6.80;;;2.80;;
51525;SDS011;37611;51.794;21.590;2023-07-08T16:36:04;4.20;;;2.40;;
51525;SDS011;37611;51.794;21.590;2023-07-08T16:40:10;6.00;;;2.20;;
51525;SDS011;37611;51.794;21.590;2023-07-08T16:44:20;4.30;;;2.60;;
51525;SDS011;37611;51.794;21.590;2023-07-08T16:48:22;7.30;;;3.00;;
51525;SDS011;37611;51.794;21.590;2023-07-08T16:52:24;4.70;;;2.50;;
51525;SDS011;37611;51.794;21.590;2023-07-08T16:56:27;4.70;;;2.30;;
51525;SDS011;37611;51.794;21.590;2023-07-08T17:00:29;4.20;;;2.50;;
51525;SDS011;37611;51.794;21.590;2023-07-08T17:04:31;4.00;;;2.70;;
51525;SDS011;37611;51.794;21.590;2023-07-08T17:08:33;8.00;;;3.30;;
51525;SDS011;37611;51.794;21.590;2023-07-08T17:12:35;3.70;;;2.40;;
51525;SDS011;37611;51.794;21.590;2023-07-08T17:16:37;5.20;;;4.70;;
51525;SDS011;37611;51.794;21.590;2023-07-08T17:20:40;5.10;;;3.40;;
51525;SDS011;37611;51.794;21.590;2023-07-08T17:24:42;6.50;;;3.00;;
51525;SDS011;37611;51.794;21.590;2023-07-08T17:28:46;3.60;;;2.90;;
51525;SDS011;37611;51.794;21.590;2023-07-08T17:32:50;3.90;;;3.00;;
51525;SDS011;37611;51.794;21.590;2023-07-08T17:36:56;13.10;;;4.00;;
51525;SDS011;37611;51.794;21.590;2023-07-08T17:40:58;7.80;;;3.30;;
51525;SDS011;37611;51.794;21.590;2023-07-08T17:44:59;23.20;;;4.30;;
51525;SDS011;37611;51.794;21.590;2023-07-08T17:49:01;6.60;;;4.60;;
51525;SDS011;37611;51.794;21.590;2023-07-08T17:53:05;6.60;;;3.90;;
51525;SDS011;37611;51.794;21.590;2023-07-08T17:57:11;4.20;;;3.10;;
51525;SDS011;37611;51.794;21.590;2023-07-08T18:01:13;9.40;;;3.50;;
51525;SDS011;37611;51.794;21.590;2023-07-08T18:05:25;7.40;;;3.80;;
51525;SDS011;37611;51.794;21.590;2023-07-08T18:09:28;8.90;;;5.70;;
51525;SDS011;37611;51.794;21.590;2023-07-08T18:13:31;8.80;;;4.40;;
51525;SDS011;37611;51.794;21.590;2023-07-08T18:17:39;6.40;;;3.70;;
51525;SDS011;37611;51.794;21.590;2023-07-08T18:21:41;12.50;;;3.90;;
51525;SDS011;37611;51.794;21.590;2023-07-08T18:25:44;15.10;;;6.20;;
51525;SDS011;37611;51.794;21.590;2023-07-08T18:29:46;15.50;;;7.30;;
51525;SDS011;37611;51.794;21.590;2023-07-08T18:33:50;13.10;;;7.30;;
51525;SDS011;37611;51.794;21.590;2023-07-08T18:37:52;14.50;;;10.10;;
51525;SDS011;37611;51.794;21.590;2023-07-08T18:41:54;15.60;;;9.20;;
51525;SDS011;37611;51.794;21.590;2023-07-08T18:45:57;13.90;;;8.80;;
51525;SDS011;37611;51.794;21.590;2023-07-08T18:49:59;22.90;;;9.70;;
51525;SDS011;37611;51.794;21.590;2023-07-08T18:54:00;16.90;;;8.20;;
51525;SDS011;37611;51.794;21.590;2023-07-08T18:58:02;16.20;;;9.30;;
51525;SDS011;37611;51.794;21.590;2023-07-08T19:02:07;14.50;;;8.10;;
51525;SDS011;37611;51.794;21.590;2023-07-08T19:06:32;17.80;;;8.30;;
51525;SDS011;37611;51.794;21.590;2023-07-08T19:10:34;25.60;;;14.70;;
51525;SDS011;37611;51.794;21.590;2023-07-08T19:14:36;40.30;;;24.10;;
51525;SDS011;37611;51.794;21.590;2023-07-08T19:18:38;20.20;;;11.50;;
51525;SDS011;37611;51.794;21.590;2023-07-08T19:22:40;20.80;;;12.90;;
51525;SDS011;37611;51.794;21.590;2023-07-08T19:26:43;23.70;;;15.60;;
51525;SDS011;37611;51.794;21.590;2023-07-08T19:30:47;26.60;;;18.40;;
51525;SDS011;37611;51.794;21.590;2023-07-08T19:34:53;31.60;;;18.80;;
51525;SDS011;37611;51.794;21.590;2023-07-08T19:38:54;30.80;;;19.20;;
51525;SDS011;37611;51.794;21.590;2023-07-08T19:42:56;28.80;;;19.10;;
51525;SDS011;37611;51.794;21.590;2023-07-08T19:46:58;27.20;;;18.30;;
51525;SDS011;37611;51.794;21.590;2023-07-08T19:51:00;21.40;;;16.30;;
51525;SDS011;37611;51.794;21.590;2023-07-08T19:55:02;21.60;;;15.60;;
51525;SDS011;37611;51.794;21.590;2023-07-08T19:59:07;18.00;;;13.60;;
51525;SDS011;37611;51.794;21.590;2023-07-08T20:03:15;25.80;;;18.00;;
51525;SDS011;37611;51.794;21.590;2023-07-08T20:07:17;23.80;;;15.70;;
51525;SDS011;37611;51.794;21.590;2023-07-08T20:11:19;28.00;;;20.50;;
51525;SDS011;37611;51.794;21.590;2023-07-08T20:15:21;30.10;;;21.60;;
51525;SDS011;37611;51.794;21.590;2023-07-08T20:19:26;34.00;;;24.10;;
51525;SDS011;37611;51.794;21.590;2023-07-08T20:23:29;40.10;;;29.70;;
51525;SDS011;37611;51.794;21.590;2023-07-08T20:27:31;43.40;;;27.90;;
51525;SDS011;37611;51.794;21.590;2023-07-08T20:31:33;40.20;;;23.80;;
51525;SDS011;37611;51.794;21.590;2023-07-08T20:35:35;34.60;;;23.70;;
51525;SDS011;37611;51.794;21.590;2023-07-08T20:39:38;29.50;;;20.70;;
51525;SDS011;37611;51.794;21.590;2023-07-08T20:43:40;28.40;;;19.00;;
51525;SDS011;37611;51.794;21.590;2023-07-08T20:47:42;29.50;;;17.20;;
51525;SDS011;37611;51.794;21.590;2023-07-08T20:51:48;20.50;;;15.10;;
51525;SDS011;37611;51.794;21.590;2023-07-08T20:55:51;19.90;;;15.00;;
51525;SDS011;37611;51.794;21.590;2023-07-08T20:59:55;18.80;;;12.80;;
51525;SDS011;37611;51.794;21.590;2023-07-08T21:03:57;17.80;;;13.40;;
51525;SDS011;37611;51.794;21.590;2023-07-08T21:07:59;17.60;;;13.30;;
51525;SDS011;37611;51.794;21.590;2023-07-08T21:12:02;18.40;;;11.70;;
51525;SDS011;37611;51.794;21.590;2023-07-08T21:16:14;16.40;;;11.90;;
51525;SDS011;37611;51.794;21.590;2023-07-08T21:20:22;20.80;;;15.20;;
51525;SDS011;37611;51.794;21.590;2023-07-08T21:24:28;36.20;;;22.50;;
51525;SDS011;37611;51.794;21.590;2023-07-08T21:28:33;66.50;;;39.10;;
51525;SDS011;37611;51.794;21.590;2023-07-08T21:32:38;42.50;;;25.50;;
51525;SDS011;37611;51.794;21.590;2023-07-08T21:36:40;33.40;;;20.20;;
51525;SDS011;37611;51.794;21.590;2023-07-08T21:40:49;16.80;;;12.70;;
51525;SDS011;37611;51.794;21.590;2023-07-08T21:44:53;15.60;;;10.80;;
51525;SDS011;37611;51.794;21.590;2023-07-08T21:48:55;13.70;;;11.40;;
51525;SDS011;37611;51.794;21.590;2023-07-08T21:52:58;18.40;;;9.60;;
51525;SDS011;37611;51.794;21.590;2023-07-08T21:57:03;12.20;;;9.90;;
51525;SDS011;37611;51.794;21.590;2023-07-08T22:01:10;12.60;;;10.40;;
51525;SDS011;37611;51.794;21.590;2023-07-08T22:05:18;13.00;;;10.80;;
51525;SDS011;37611;51.794;21.590;2023-07-08T22:09:22;15.50;;;10.50;;
51525;SDS011;37611;51.794;21.590;2023-07-08T22:13:25;16.50;;;12.80;;
51525;SDS011;37611;51.794;21.590;2023-07-08T22:17:31;45.60;;;26.00;;
51525;SDS011;37611;51.794;21.590;2023-07-08T22:21:34;33.10;;;20.10;;
51525;SDS011;37611;51.794;21.590;2023-07-08T22:25:37;37.40;;;19.70;;
51525;SDS011;37611;51.794;21.590;2023-07-08T22:29:39;31.60;;;20.00;;
51525;SDS011;37611;51.794;21.590;2023-07-08T22:33:41;28.10;;;18.00;;
51525;SDS011;37611;51.794;21.590;2023-07-08T22:37:42;26.10;;;18.30;;
51525;SDS011;37611;51.794;21.590;2023-07-08T22:41:46;28.00;;;17.40;;
51525;SDS011;37611;51.794;21.590;2023-07-08T22:45:50;26.30;;;17.40;;
51525;SDS011;37611;51.794;21.590;2023-07-08T22:49:52;44.50;;;27.00;;
51525;SDS011;37611;51.794;21.590;2023-07-08T22:53:54;40.10;;;24.90;;
51525;SDS011;37611;51.794;21.590;2023-07-08T22:58:01;25.40;;;16.80;;
51525;SDS011;37611;51.794;21.590;2023-07-08T23:02:03;28.00;;;18.30;;
51525;SDS011;37611;51.794;21.590;2023-07-08T23:06:05;19.20;;;12.90;;
51525;SDS011;37611;51.794;21.590;2023-07-08T23:10:12;13.70;;;12.10;;
51525;SDS011;37611;51.794;21.590;2023-07-08T23:14:15;20.70;;;15.00;;
51525;SDS011;37611;51.794;21.590;2023-07-08T23:18:18;38.30;;;26.20;;
51525;SDS011;37611;51.794;21.590;2023-07-08T23:22:20;32.80;;;22.20;;
51525;SDS011;37611;51.794;21.590;2023-07-08T23:26:24;29.40;;;22.00;;
51525;SDS011;37611;51.794;21.590;2023-07-08T23:30:37;31.30;;;20.50;;
51525;SDS011;37611;51.794;21.590;2023-07-08T23:34:40;27.90;;;17.80;;
51525;SDS011;37611;51.794;21.590;2023-07-08T23:38:42;28.40;;;16.10;;
51525;SDS011;37611;51.794;21.590;2023-07-08T23:42:44;21.30;;;16.30;;
51525;SDS011;37611;51.794;21.590;2023-07-08T23:46:47;22.00;;;16.40;;
51525;SDS011;37611;51.794;21.590;2023-07-08T23:50:56;27.00;;;17.60;;
51525;SDS011;37611;51.794;21.590;2023-07-08T23:54:57;18.00;;;13.00;;
51525;SDS011;37611;51.794;21.590;2023-07-08T23:58:59;17.40;;;12.90;;
